Time;durP1;ratioP1;P1;durP2;ratioP2;P2;SDS_P1;SDS_P2;PMS_P1;PMS_P2;Temp;Humidity;BMP_temperature;BMP_pressure;BME280_temperature;BME280_humidity;BME280_pressure;Samples;Min_cycle;Max_cycle;Signal;HPM_P1;HPM_P2
2023/02/21 02:14:27;;;;;;;12.10;4.10;;;9.00;99.90;;;;;;5032915;28;20232;-61
2023/02/21 02:17:05;;;;;;;11.67;4.73;;;9.00;99.90;;;;;;5032838;28;20235;-61
2023/02/21 02:20:14;;;;;;;15.03;4.87;;;8.90;99.90;;;;;;5032736;28;20236;-61
2023/02/21 02:23:32;;;;;;;12.80;4.40;;;8.90;99.90;;;;;;5032675;28;20562;-61
2023/02/21 02:26:24;;;;;;;11.37;4.60;;;8.90;99.90;;;;;;5030965;28;20224;-61
2023/02/21 02:29:11;;;;;;;13.23;4.20;;;8.90;99.90;;;;;;5030323;28;20225;-61
2023/02/21 02:32:04;;;;;;;10.13;3.90;;;8.90;99.90;;;;;;5027593;28;20244;-61
2023/02/21 02:34:53;;;;;;;13.33;3.40;;;8.90;99.90;;;;;;5011644;28;20679;-61
2023/02/21 02:37:27;;;;;;;11.53;2.80;;;8.90;99.90;;;;;;5029206;28;20247;-61
2023/02/21 02:40:02;;;;;;;6.53;2.63;;;8.90;99.90;;;;;;5032506;28;20321;-61
2023/02/21 02:42:45;;;;;;;5.17;2.43;;;8.90;99.90;;;;;;5032853;28;20255;-61
2023/02/21 02:45:19;;;;;;;5.83;2.43;;;8.90;99.90;;;;;;5032465;28;20225;-61
2023/02/21 02:47:53;;;;;;;5.30;2.27;;;8.80;99.90;;;;;;5032414;28;20273;-61
2023/02/21 02:50:24;;;;;;;6.03;1.97;;;8.80;99.90;;;;;;5032952;28;20711;-61
2023/02/21 02:52:54;;;;;;;6.33;2.10;;;8.80;99.90;;;;;;5031266;28;20706;-61
2023/02/21 02:55:34;;;;;;;6.73;1.80;;;8.80;99.90;;;;;;5030641;28;20598;-61
2023/02/21 02:58:03;;;;;;;4.97;1.90;;;8.80;99.90;;;;;;5030915;28;20255;-61
2023/02/21 03:00:34;;;;;;;4.50;2.17;;;8.80;99.90;;;;;;5027447;28;20589;-61
2023/02/21 03:03:39;;;;;;;7.40;2.13;;;8.80;99.90;;;;;;5015731;28;20256;-60
2023/02/21 03:06:21;;;;;;;4.83;2.13;;;8.80;99.90;;;;;;5033157;28;20232;-61
2023/02/21 03:08:57;;;;;;;3.67;1.80;;;8.80;99.90;;;;;;5030857;28;20225;-61
2023/02/21 03:11:26;;;;;;;5.77;2.20;;;8.80;99.90;;;;;;5031023;28;20262;-61
2023/02/21 03:14:01;;;;;;;4.67;2.10;;;8.80;99.90;;;;;;5026893;28;20229;-61
2023/02/21 03:16:36;;;;;;;4.87;2.23;;;8.80;99.90;;;;;;5030789;28;20225;-61
2023/02/21 03:19:08;;;;;;;6.30;2.50;;;8.80;99.90;;;;;;5032517;28;20241;-61
2023/02/21 03:21:41;;;;;;;5.20;2.07;;;8.80;99.90;;;;;;5032429;28;20308;-61
2023/02/21 03:24:13;;;;;;;6.17;2.10;;;8.70;99.90;;;;;;5030777;28;20228;-61
2023/02/21 03:26:44;;;;;;;4.23;1.97;;;8.80;99.90;;;;;;5012657;28;20317;-61
2023/02/21 03:29:37;;;;;;;4.97;2.00;;;8.70;99.90;;;;;;4995290;28;20237;-61
2023/02/21 03:34:41;;;;;;;4.10;1.87;;;8.70;99.90;;;;;;5031457;28;20764;-61
2023/02/21 03:37:20;;;;;;;4.13;2.00;;;8.70;99.90;;;;;;5032840;28;20291;-61
2023/02/21 03:39:49;;;;;;;6.47;2.40;;;8.70;99.90;;;;;;5030261;28;20229;-61
2023/02/21 03:42:17;;;;;;;7.30;2.23;;;8.70;99.90;;;;;;5035657;28;20216;-61
2023/02/21 03:44:46;;;;;;;4.43;2.20;;;8.70;99.90;;;;;;5033583;28;20220;-61
2023/02/21 03:47:15;;;;;;;4.87;1.93;;;8.70;99.90;;;;;;5034421;28;20220;-61
2023/02/21 03:49:43;;;;;;;4.30;1.90;;;8.70;99.90;;;;;;5019600;28;20779;-60
2023/02/21 03:52:13;;;;;;;5.13;1.97;;;8.70;99.90;;;;;;5014636;28;20225;-60
2023/02/21 03:54:41;;;;;;;6.27;2.17;;;8.70;99.90;;;;;;5015923;28;20217;-61
2023/02/21 03:57:14;;;;;;;4.93;2.10;;;8.70;99.90;;;;;;5014533;28;20230;-61
2023/02/21 03:59:45;;;;;;;4.70;2.00;;;8.70;99.90;;;;;;5017467;28;20268;-60
2023/02/21 04:02:14;;;;;;;2.83;1.93;;;8.60;99.90;;;;;;5033613;28;20312;-61
2023/02/21 04:04:42;;;;;;;6.33;2.00;;;8.60;99.90;;;;;;5033410;28;20221;-61
2023/02/21 04:07:16;;;;;;;4.73;1.90;;;8.60;99.90;;;;;;5036232;28;20243;-61
2023/02/21 04:09:44;;;;;;;3.53;2.30;;;8.60;99.90;;;;;;5035341;28;20594;-61
2023/02/21 04:12:16;;;;;;;2.50;1.90;;;8.60;99.90;;;;;;5032345;28;20270;-61
2023/02/21 04:14:45;;;;;;;4.13;2.37;;;8.60;99.90;;;;;;5033003;28;20279;-61
2023/02/21 04:17:14;;;;;;;2.67;1.80;;;8.60;99.90;;;;;;5033839;28;20220;-61
2023/02/21 04:19:43;;;;;;;3.67;1.87;;;8.60;99.90;;;;;;5033617;28;20696;-61
2023/02/21 04:22:11;;;;;;;2.47;1.77;;;8.60;99.90;;;;;;5035124;28;20224;-61
2023/02/21 04:24:41;;;;;;;3.23;1.77;;;8.60;99.90;;;;;;5030726;28;20220;-61
2023/02/21 04:27:10;;;;;;;2.67;1.87;;;8.60;99.90;;;;;;5014026;28;20256;-62
2023/02/21 04:29:40;;;;;;;4.50;1.87;;;8.60;99.90;;;;;;5016502;28;20766;-61
2023/02/21 04:32:10;;;;;;;2.33;1.80;;;8.60;99.90;;;;;;5033146;28;20229;-60
2023/02/21 04:34:38;;;;;;;5.53;2.07;;;8.60;99.90;;;;;;5032883;28;20236;-60
2023/02/21 04:37:07;;;;;;;4.03;2.30;;;8.50;99.90;;;;;;5035450;28;20260;-61
2023/02/21 04:39:35;;;;;;;3.93;2.10;;;8.50;99.90;;;;;;5033257;28;20311;-60
2023/02/21 04:42:05;;;;;;;4.90;2.20;;;8.50;99.90;;;;;;5034691;28;20221;-61
2023/02/21 04:44:35;;;;;;;4.70;2.00;;;8.50;99.90;;;;;;5028524;28;20319;-61
2023/02/21 04:47:04;;;;;;;2.87;1.97;;;8.50;99.90;;;;;;5034486;28;20232;-61
2023/02/21 04:49:32;;;;;;;3.37;1.90;;;8.50;99.90;;;;;;5034286;28;20687;-61
2023/02/21 04:52:00;;;;;;;3.70;2.07;;;8.50;99.90;;;;;;5034309;28;20242;-61
2023/02/21 04:54:28;;;;;;;2.93;1.93;;;8.50;99.90;;;;;;5033756;28;20585;-61
2023/02/21 04:56:56;;;;;;;4.47;2.27;;;8.50;99.90;;;;;;5014660;28;20217;-60
2023/02/21 04:59:26;;;;;;;4.10;2.00;;;8.50;99.90;;;;;;5014971;28;20319;-61
2023/02/21 05:01:54;;;;;;;4.63;2.40;;;8.50;99.90;;;;;;5033725;28;20730;-60
2023/02/21 05:04:22;;;;;;;3.20;2.30;;;8.50;99.90;;;;;;5033974;28;20224;-61
2023/02/21 05:06:50;;;;;;;4.63;2.60;;;8.50;99.90;;;;;;5036253;28;20227;-61
2023/02/21 05:09:18;;;;;;;4.67;2.53;;;8.50;99.90;;;;;;5034160;28;20595;-63
2023/02/21 05:11:46;;;;;;;3.50;2.50;;;8.50;99.90;;;;;;5033966;28;20225;-60
2023/02/21 05:14:16;;;;;;;3.70;2.50;;;8.50;99.90;;;;;;5028539;28;20224;-61
2023/02/21 05:16:46;;;;;;;4.47;3.10;;;8.40;99.90;;;;;;5034307;28;20263;-61
2023/02/21 05:19:26;;;;;;;9.10;3.10;;;8.40;99.90;;;;;;5033916;28;20355;-61
2023/02/21 05:21:55;;;;;;;7.37;2.93;;;8.40;99.90;;;;;;5033945;28;20645;-60
2023/02/21 05:24:24;;;;;;;9.53;3.23;;;8.30;99.90;;;;;;5033568;28;20232;-60
2023/02/21 05:26:52;;;;;;;12.60;3.20;;;8.30;99.90;;;;;;5033745;28;20236;-61
2023/02/21 05:29:20;;;;;;;16.17;3.50;;;8.20;99.90;;;;;;5034061;28;20236;-61
2023/02/21 05:31:50;;;;;;;16.63;3.00;;;8.20;99.90;;;;;;5030341;28;20237;-60
2023/02/21 05:34:18;;;;;;;9.17;2.47;;;8.20;99.90;;;;;;5033374;28;20315;-61
2023/02/21 05:36:46;;;;;;;10.40;3.10;;;8.10;99.90;;;;;;5035608;28;20236;-60
2023/02/21 05:39:14;;;;;;;17.57;3.93;;;8.20;99.90;;;;;;5033871;28;20229;-60
2023/02/21 05:41:47;;;;;;;11.43;2.90;;;8.20;99.90;;;;;;5033028;28;20228;-61
2023/02/21 05:44:15;;;;;;;11.83;2.83;;;8.10;99.90;;;;;;5032495;28;20216;-60
2023/02/21 05:46:44;;;;;;;15.77;3.43;;;8.20;99.90;;;;;;5032325;28;20558;-61
2023/02/21 05:49:15;;;;;;;9.63;3.47;;;8.20;99.90;;;;;;5022152;28;20689;-61
2023/02/21 05:51:44;;;;;;;12.53;3.40;;;8.20;99.90;;;;;;5024326;28;20232;-61
2023/02/21 05:54:16;;;;;;;12.10;3.30;;;8.20;99.90;;;;;;5030272;28;20221;-61
2023/02/21 05:56:48;;;;;;;7.77;3.43;;;8.20;99.90;;;;;;5031168;28;20232;-61
2023/02/21 05:59:18;;;;;;;8.63;3.70;;;8.20;99.90;;;;;;5033536;28;20225;-61
2023/02/21 06:01:46;;;;;;;8.97;3.70;;;8.20;99.90;;;;;;5021440;28;20241;-60
2023/02/21 06:04:15;;;;;;;9.17;3.80;;;8.20;99.90;;;;;;5013138;28;20695;-61
2023/02/21 06:06:44;;;;;;;9.13;3.97;;;8.20;99.90;;;;;;5025975;28;20221;-60
2023/02/21 06:09:12;;;;;;;8.10;4.47;;;8.20;99.90;;;;;;5021722;28;20705;-60
2023/02/21 06:11:40;;;;;;;9.00;4.63;;;8.20;99.90;;;;;;5022260;28;20224;-61
2023/02/21 06:14:13;;;;;;;6.37;4.57;;;8.20;99.90;;;;;;5031616;28;20225;-60
2023/02/21 06:16:41;;;;;;;7.80;4.50;;;8.20;99.90;;;;;;5031504;28;20304;-61
2023/02/21 06:19:11;;;;;;;9.53;5.40;;;8.20;99.90;;;;;;5025648;28;20224;-61
2023/02/21 06:21:40;;;;;;;10.23;5.33;;;8.20;99.90;;;;;;5028429;28;20327;-60
2023/02/21 06:24:10;;;;;;;10.10;5.80;;;8.20;99.90;;;;;;5033132;28;20727;-60
2023/02/21 06:26:39;;;;;;;11.80;6.17;;;8.20;99.90;;;;;;5032356;28;20235;-60
2023/02/21 06:29:08;;;;;;;13.40;6.37;;;8.20;99.90;;;;;;5033101;28;20229;-61
2023/02/21 06:31:36;;;;;;;15.67;6.57;;;8.20;99.90;;;;;;5021123;28;20244;-61
2023/02/21 06:34:05;;;;;;;16.73;7.20;;;8.10;99.90;;;;;;5032822;28;20237;-61
2023/02/21 06:36:34;;;;;;;16.33;6.47;;;8.10;99.90;;;;;;5031904;28;20244;-60
2023/02/21 06:39:04;;;;;;;14.97;6.73;;;8.10;99.90;;;;;;5027416;28;20229;-60
2023/02/21 06:41:32;;;;;;;16.87;6.97;;;8.10;99.90;;;;;;5012901;28;20324;-60
2023/02/21 06:44:00;;;;;;;15.87;6.33;;;8.10;99.90;;;;;;5019016;28;20233;-60
2023/02/21 06:46:30;;;;;;;16.47;6.53;;;8.10;99.90;;;;;;5032624;28;20236;-60
2023/02/21 06:48:58;;;;;;;15.80;6.53;;;8.10;99.90;;;;;;5032278;28;20228;-60
2023/02/21 06:51:28;;;;;;;18.13;6.83;;;8.10;99.90;;;;;;5031164;28;20232;-56
2023/02/21 06:53:57;;;;;;;18.57;6.90;;;8.10;99.90;;;;;;5032524;28;20685;-57
2023/02/21 06:56:27;;;;;;;12.37;6.53;;;8.10;99.90;;;;;;5032459;28;20684;-57
2023/02/21 06:58:56;;;;;;;18.40;6.97;;;8.10;99.90;;;;;;5031469;28;20225;-57
2023/02/21 07:01:26;;;;;;;13.70;6.00;;;8.10;99.90;;;;;;5026368;28;20237;-57
2023/02/21 07:03:55;;;;;;;16.03;6.27;;;8.20;99.90;;;;;;5026356;28;20294;-57
2023/02/21 07:06:24;;;;;;;16.63;7.03;;;8.20;99.90;;;;;;5034554;28;20708;-57
2023/02/21 07:08:53;;;;;;;16.20;6.33;;;8.20;99.90;;;;;;5030999;28;20229;-56
2023/02/21 07:11:22;;;;;;;13.00;6.53;;;8.20;99.90;;;;;;5032055;28;20680;-58
2023/02/21 07:13:52;;;;;;;13.67;6.47;;;8.20;99.90;;;;;;5022390;28;20228;-57
2023/02/21 07:16:21;;;;;;;15.77;6.47;;;8.20;99.90;;;;;;5035554;28;20255;-57
2023/02/21 07:18:49;;;;;;;19.17;6.77;;;8.20;99.90;;;;;;5036660;28;20231;-57
2023/02/21 07:21:18;;;;;;;24.23;7.83;;;8.20;99.90;;;;;;5026791;28;20235;-57
2023/02/21 07:23:47;;;;;;;12.30;6.63;;;8.20;99.90;;;;;;5016470;28;20238;-55
2023/02/21 07:26:16;;;;;;;19.50;6.93;;;8.20;99.90;;;;;;5016323;28;20225;-57
2023/02/21 07:28:44;;;;;;;20.90;7.10;;;8.20;99.90;;;;;;5017507;28;20226;-63
2023/02/21 07:31:14;;;;;;;18.87;7.27;;;8.20;99.90;;;;;;5030719;28;20252;-64
2023/02/21 07:33:46;;;;;;;18.43;6.47;;;8.20;99.90;;;;;;5027525;28;20217;-64
2023/02/21 07:36:14;;;;;;;17.33;5.40;;;8.20;99.90;;;;;;5024341;28;20235;-63
2023/02/21 07:38:42;;;;;;;17.70;6.57;;;8.20;99.90;;;;;;5034317;28;20229;-63
2023/02/21 07:41:10;;;;;;;15.47;5.47;;;8.20;99.90;;;;;;5027942;28;20241;-64
2023/02/21 07:43:38;;;;;;;22.47;6.50;;;8.20;99.90;;;;;;5032226;28;20720;-64
2023/02/21 07:46:10;;;;;;;23.37;5.43;;;8.20;99.90;;;;;;5035532;28;20227;-63
2023/02/21 07:48:40;;;;;;;19.73;4.93;;;8.20;99.90;;;;;;5034940;28;20319;-64
2023/02/21 07:51:10;;;;;;;17.87;5.10;;;8.20;99.90;;;;;;5029536;28;20224;-63
2023/02/21 07:53:38;;;;;;;16.80;4.87;;;8.20;99.90;;;;;;5019676;28;20233;-63
2023/02/21 07:56:06;;;;;;;17.60;4.33;;;8.20;99.90;;;;;;5024808;28;20233;-64
2023/02/21 07:58:36;;;;;;;19.40;4.47;;;8.30;99.90;;;;;;5030186;28;20580;-63
2023/02/21 08:01:07;;;;;;;20.20;5.03;;;8.30;99.90;;;;;;5028034;28;20708;-64
2023/02/21 08:04:04;;;;;;;15.57;4.07;;;8.30;99.90;;;;;;5029073;28;20230;-63
2023/02/21 08:06:34;;;;;;;14.20;4.23;;;8.30;99.90;;;;;;5029088;28;20693;-63
2023/02/21 08:09:03;;;;;;;14.50;4.30;;;8.30;99.90;;;;;;5027379;28;20229;-64
2023/02/21 08:11:31;;;;;;;19.87;4.50;;;8.30;99.90;;;;;;5028696;28;20235;-63
2023/02/21 08:13:59;;;;;;;13.03;4.50;;;8.30;99.90;;;;;;5028607;28;20564;-63
2023/02/21 08:16:27;;;;;;;14.00;4.23;;;8.30;99.90;;;;;;5028700;28;20229;-64
2023/02/21 08:18:55;;;;;;;13.83;3.93;;;8.40;99.90;;;;;;5030410;28;20243;-63
2023/02/21 08:21:25;;;;;;;13.77;3.77;;;8.40;99.90;;;;;;5030526;28;20727;-63
2023/02/21 08:23:53;;;;;;;12.53;4.20;;;8.40;99.90;;;;;;5030815;28;20228;-64
2023/02/21 08:26:22;;;;;;;12.50;4.43;;;8.50;99.90;;;;;;5029472;28;20236;-64
2023/02/21 08:28:50;;;;;;;13.73;4.00;;;8.50;99.90;;;;;;5030355;28;20229;-63
2023/02/21 08:31:18;;;;;;;9.07;4.13;;;8.50;99.90;;;;;;5029924;28;20736;-64
2023/02/21 08:33:46;;;;;;;9.93;4.00;;;8.60;99.90;;;;;;5029750;28;20229;-63
2023/02/21 08:36:14;;;;;;;10.70;3.60;;;8.50;99.90;;;;;;5030469;28;20688;-64
2023/02/21 08:38:44;;;;;;;9.57;4.30;;;8.60;99.90;;;;;;5027789;28;20240;-63
2023/02/21 08:41:12;;;;;;;11.77;4.03;;;8.60;99.90;;;;;;5029879;28;20228;-64
2023/02/21 08:43:40;;;;;;;12.57;4.27;;;8.60;99.90;;;;;;5031131;28;20250;-63
2023/02/21 08:46:08;;;;;;;13.27;4.20;;;8.60;99.90;;;;;;5030027;28;20220;-64
2023/02/21 08:48:36;;;;;;;15.37;4.67;;;8.60;99.90;;;;;;5028646;28;20586;-63
2023/02/21 08:51:05;;;;;;;15.87;4.43;;;8.60;99.90;;;;;;5030398;28;20220;-64
2023/02/21 08:53:33;;;;;;;13.57;4.67;;;8.70;99.90;;;;;;5028744;28;20280;-63
2023/02/21 08:56:02;;;;;;;14.10;4.53;;;8.70;99.90;;;;;;5029199;28;20223;-64
2023/02/21 08:58:30;;;;;;;17.13;4.87;;;8.70;99.90;;;;;;5029310;28;20228;-63
2023/02/21 09:00:58;;;;;;;11.50;4.10;;;8.70;99.90;;;;;;5029305;28;20701;-63
2023/02/21 09:03:26;;;;;;;14.53;4.27;;;8.70;99.90;;;;;;5027951;28;20239;-63
2023/02/21 09:05:54;;;;;;;16.93;4.53;;;8.80;99.90;;;;;;5030234;28;20235;-64
2023/02/21 09:08:25;;;;;;;16.20;4.50;;;8.80;99.90;;;;;;5029370;28;20700;-63
2023/02/21 09:10:55;;;;;;;12.67;4.23;;;8.70;99.90;;;;;;5029473;28;20298;-63
2023/02/21 09:13:25;;;;;;;12.90;4.63;;;8.80;99.90;;;;;;5029232;28;20235;-64
2023/02/21 09:15:53;;;;;;;13.83;4.03;;;8.80;99.90;;;;;;5029700;28;20712;-63
2023/02/21 09:18:21;;;;;;;13.60;3.90;;;8.80;99.90;;;;;;5028931;28;20684;-63
2023/02/21 09:20:51;;;;;;;17.20;4.80;;;8.80;99.90;;;;;;5028693;28;20217;-63
2023/02/21 09:23:20;;;;;;;11.47;3.77;;;8.90;99.90;;;;;;5029263;28;20629;-64
2023/02/21 09:25:48;;;;;;;12.00;3.80;;;9.00;99.90;;;;;;5029093;28;20220;-64
2023/02/21 09:28:17;;;;;;;14.73;4.03;;;9.10;99.90;;;;;;5029510;28;20239;-64
2023/02/21 09:30:47;;;;;;;14.43;3.67;;;9.10;99.90;;;;;;5028043;28;20852;-64
2023/02/21 09:33:15;;;;;;;12.47;3.60;;;9.10;99.90;;;;;;5029221;28;20226;-64
2023/02/21 09:35:43;;;;;;;15.73;3.57;;;9.10;99.90;;;;;;5028877;28;20228;-64
2023/02/21 09:38:11;;;;;;;12.37;3.40;;;9.20;99.90;;;;;;5027666;28;20240;-64
2023/02/21 09:40:43;;;;;;;12.30;3.87;;;9.20;99.90;;;;;;5029357;28;20643;-63
2023/02/21 09:43:18;;;;;;;14.83;3.80;;;9.20;99.90;;;;;;5028100;28;20237;-64
2023/02/21 09:45:51;;;;;;;9.67;3.27;;;9.20;99.90;;;;;;5029107;28;20323;-63
2023/02/21 09:48:21;;;;;;;10.30;3.07;;;9.20;99.90;;;;;;5026584;28;20268;-64
2023/02/21 09:50:53;;;;;;;8.60;2.80;;;9.20;99.90;;;;;;5027503;28;20244;-63
2023/02/21 09:53:25;;;;;;;10.70;3.93;;;9.20;99.90;;;;;;5027370;28;20228;-64
2023/02/21 09:55:59;;;;;;;11.30;3.20;;;9.10;99.90;;;;;;5027804;28;20235;-64
2023/02/21 09:58:27;;;;;;;8.53;3.40;;;9.20;99.90;;;;;;5028425;28;20228;-64
2023/02/21 10:01:00;;;;;;;8.97;3.00;;;9.20;99.90;;;;;;5027823;28;20233;-65
2023/02/21 10:03:43;;;;;;;6.10;2.60;;;9.30;99.90;;;;;;5028303;28;20221;-64
2023/02/21 10:06:23;;;;;;;6.27;2.57;;;9.30;99.90;;;;;;5027809;28;20584;-63
2023/02/21 10:08:57;;;;;;;7.60;2.87;;;9.20;99.90;;;;;;5027876;28;20224;-64
2023/02/21 10:11:37;;;;;;;7.10;2.83;;;9.20;99.90;;;;;;5026512;28;20232;-64
2023/02/21 10:14:18;;;;;;;7.27;2.93;;;9.20;99.90;;;;;;5028285;28;20715;-65
2023/02/21 10:16:55;;;;;;;7.53;2.90;;;9.30;99.90;;;;;;5028301;28;20232;-64
2023/02/21 10:19:30;;;;;;;6.40;2.77;;;9.20;99.90;;;;;;5028886;28;20256;-63
2023/02/21 10:22:02;;;;;;;7.50;3.03;;;9.30;99.90;;;;;;5025650;28;20224;-63
2023/02/21 10:24:30;;;;;;;7.40;2.87;;;9.30;99.90;;;;;;5027983;28;20572;-64
2023/02/21 10:27:02;;;;;;;6.30;2.70;;;9.30;99.90;;;;;;5028112;28;20212;-64
2023/02/21 10:29:38;;;;;;;5.13;2.93;;;9.30;99.90;;;;;;5027986;28;20237;-64
2023/02/21 10:32:08;;;;;;;5.23;2.57;;;9.30;99.90;;;;;;5027749;28;20286;-63
2023/02/21 10:34:36;;;;;;;6.60;2.43;;;9.30;99.90;;;;;;5026912;28;20692;-63
2023/02/21 10:37:23;;;;;;;4.20;2.60;;;9.30;99.90;;;;;;5027995;28;20249;-63
2023/02/21 10:39:55;;;;;;;4.37;2.50;;;9.30;99.90;;;;;;5026857;28;20279;-63
2023/02/21 10:42:30;;;;;;;9.77;3.30;;;9.40;99.90;;;;;;5027902;28;20225;-64
2023/02/21 10:44:59;;;;;;;6.23;2.87;;;9.50;99.90;;;;;;5027431;28;20731;-64
2023/02/21 10:47:45;;;;;;;5.10;2.80;;;9.50;99.90;;;;;;5027022;28;20227;-65
2023/02/21 10:50:14;;;;;;;3.37;2.30;;;9.50;99.90;;;;;;5027555;28;20222;-65
2023/02/21 10:52:48;;;;;;;4.27;2.40;;;9.60;99.90;;;;;;5027963;28;20229;-65
2023/02/21 10:55:18;;;;;;;4.40;2.50;;;9.60;99.90;;;;;;5028382;28;20225;-65
2023/02/21 10:58:07;;;;;;;4.10;2.30;;;9.50;99.90;;;;;;5027568;28;20757;-65
2023/02/21 11:00:37;;;;;;;3.70;2.70;;;9.60;99.90;;;;;;5027775;28;20321;-65
2023/02/21 11:03:18;;;;;;;3.73;2.40;;;9.60;99.90;;;;;;5027784;28;20227;-65
2023/02/21 11:05:50;;;;;;;4.37;2.50;;;9.60;99.90;;;;;;5027020;28;20697;-65
2023/02/21 11:08:35;;;;;;;3.30;2.47;;;9.60;99.90;;;;;;5028020;28;20644;-65
2023/02/21 11:11:03;;;;;;;3.60;2.57;;;9.60;99.90;;;;;;5026423;28;20225;-65
2023/02/21 11:13:34;;;;;;;3.77;2.47;;;9.60;99.90;;;;;;5027643;28;20706;-65
2023/02/21 11:16:11;;;;;;;4.83;2.73;;;9.60;99.90;;;;;;5027615;28;20220;-65
2023/02/21 11:18:41;;;;;;;4.23;2.50;;;9.60;99.90;;;;;;5027128;28;21014;-65
2023/02/21 11:21:13;;;;;;;2.93;2.20;;;9.50;99.90;;;;;;5026916;28;20234;-65
2023/02/21 11:23:48;;;;;;;3.37;2.00;;;9.50;99.90;;;;;;5027755;28;20739;-66
2023/02/21 11:26:17;;;;;;;2.70;2.00;;;9.50;99.90;;;;;;5025481;28;21295;-66
2023/02/21 11:28:47;;;;;;;2.90;1.87;;;9.50;99.90;;;;;;5027714;28;20692;-65
2023/02/21 11:31:18;;;;;;;2.70;1.47;;;9.60;99.90;;;;;;5024920;28;20778;-65
2023/02/21 11:33:55;;;;;;;1.43;1.20;;;9.60;99.90;;;;;;5026751;28;20222;-65
2023/02/21 11:36:28;;;;;;;1.77;1.20;;;9.60;99.90;;;;;;5026368;28;20300;-65
2023/02/21 11:39:03;;;;;;;2.93;1.50;;;9.60;99.90;;;;;;5025119;28;20724;-66
2023/02/21 11:41:36;;;;;;;3.20;1.40;;;9.50;99.90;;;;;;5023881;28;20251;-65
2023/02/21 11:44:24;;;;;;;3.97;1.67;;;9.50;99.90;;;;;;5024680;28;20236;-65
2023/02/21 11:47:01;;;;;;;2.20;1.60;;;9.50;99.90;;;;;;5026158;28;20252;-65
2023/02/21 11:49:37;;;;;;;2.30;1.80;;;9.50;99.90;;;;;;5026865;28;20243;-65
2023/02/21 11:52:11;;;;;;;2.17;1.60;;;9.50;99.90;;;;;;5027544;28;20217;-64
2023/02/21 11:54:39;;;;;;;2.40;1.73;;;9.50;99.90;;;;;;5027366;28;20228;-65
2023/02/21 11:57:17;;;;;;;2.33;1.77;;;9.40;99.90;;;;;;5026974;28;20339;-65
2023/02/21 11:59:50;;;;;;;1.97;1.30;;;9.40;99.90;;;;;;5027397;28;20706;-66
2023/02/21 12:02:42;;;;;;;2.23;1.63;;;9.40;99.90;;;;;;5028679;28;20229;-66
2023/02/21 12:05:28;;;;;;;2.47;1.80;;;9.40;99.90;;;;;;5029412;28;20331;-65
2023/02/21 12:08:19;;;;;;;1.90;1.70;;;9.40;99.90;;;;;;5029886;28;20229;-65
2023/02/21 12:10:56;;;;;;;2.73;1.67;;;9.40;99.90;;;;;;5021857;28;20233;-66
2023/02/21 12:13:33;;;;;;;2.63;1.40;;;9.40;99.90;;;;;;5027467;28;20233;-65
2023/02/21 12:16:11;;;;;;;2.00;1.13;;;9.40;99.90;;;;;;5026350;28;20919;-66
2023/02/21 12:18:51;;;;;;;2.50;1.80;;;9.40;99.90;;;;;;5027458;28;20233;-65
2023/02/21 12:21:38;;;;;;;2.47;1.50;;;9.50;99.90;;;;;;5027684;28;20225;-66
2023/02/21 12:24:30;;;;;;;1.50;1.37;;;9.50;99.90;;;;;;5027728;28;20232;-65
2023/02/21 12:27:02;;;;;;;1.93;1.30;;;9.50;99.90;;;;;;5027469;28;20236;-65
2023/02/21 12:29:47;;;;;;;1.83;1.10;;;9.40;99.90;;;;;;5029981;28;20233;-66
2023/02/21 12:32:42;;;;;;;1.63;1.33;;;9.40;99.90;;;;;;5026225;28;20237;-65
2023/02/21 12:35:52;;;;;;;1.93;1.30;;;9.40;99.90;;;;;;5024729;28;20239;-65
2023/02/21 12:38:29;;;;;;;1.47;1.10;;;9.40;99.90;;;;;;5028726;28;20241;-65
2023/02/21 12:41:06;;;;;;;1.33;1.20;;;9.40;99.90;;;;;;5029202;28;20235;-65
2023/02/21 12:43:45;;;;;;;1.67;1.10;;;9.40;99.90;;;;;;5030475;28;20606;-66
2023/02/21 12:46:22;;;;;;;3.40;1.87;;;9.40;99.90;;;;;;5030016;28;20240;-66
2023/02/21 12:48:56;;;;;;;2.93;1.50;;;9.40;99.90;;;;;;5029843;28;20350;-65
2023/02/21 12:51:31;;;;;;;1.57;1.23;;;9.30;99.90;;;;;;5028739;28;20584;-65
2023/02/21 12:54:04;;;;;;;1.73;1.20;;;9.30;99.90;;;;;;5029745;28;20679;-65
2023/02/21 12:56:39;;;;;;;2.03;1.33;;;9.30;99.90;;;;;;5029726;28;20240;-65
2023/02/21 12:59:15;;;;;;;1.77;1.40;;;9.40;99.90;;;;;;5029205;28;20229;-65
2023/02/21 13:01:47;;;;;;;2.17;1.50;;;9.40;99.90;;;;;;5027110;28;20441;-62
2023/02/21 13:04:24;;;;;;;2.77;1.33;;;9.40;99.90;;;;;;5029604;28;20651;-61
2023/02/21 13:06:58;;;;;;;2.17;1.70;;;9.60;99.90;;;;;;5030139;28;20581;-61
2023/02/21 13:09:35;;;;;;;3.00;2.00;;;9.70;99.90;;;;;;5029192;28;20713;-61
2023/02/21 13:12:08;;;;;;;2.50;2.20;;;9.70;99.90;;;;;;5029195;28;20227;-61
2023/02/21 13:14:41;;;;;;;2.23;2.00;;;9.60;99.90;;;;;;5029167;28;20227;-62
2023/02/21 13:17:11;;;;;;;2.93;2.00;;;9.60;99.90;;;;;;5029018;28;20229;-62
2023/02/21 13:19:45;;;;;;;2.93;2.37;;;9.50;99.90;;;;;;5029119;28;20304;-61
2023/02/21 13:26:15;;;;;;;3.57;2.17;;;9.50;99.90;;;;;;5029027;28;20275;-61
2023/02/21 13:28:44;;;;;;;3.70;2.70;;;9.40;99.90;;;;;;5028586;28;20229;-61
2023/02/21 13:31:20;;;;;;;3.50;2.70;;;9.40;99.90;;;;;;5028886;28;20244;-63
2023/02/21 13:33:51;;;;;;;3.10;2.73;;;9.40;99.90;;;;;;5028627;28;20755;-61
2023/02/21 13:36:26;;;;;;;4.03;2.70;;;9.40;99.90;;;;;;5029508;28;20731;-61
2023/02/21 13:39:01;;;;;;;4.30;3.13;;;9.40;99.90;;;;;;5028860;28;20240;-61
2023/02/21 13:41:35;;;;;;;4.43;2.90;;;9.30;99.90;;;;;;5029243;28;20237;-61
2023/02/21 13:44:08;;;;;;;4.93;3.17;;;9.30;99.90;;;;;;5028385;28;20222;-61
2023/02/21 13:47:09;;;;;;;5.97;3.67;;;9.40;99.90;;;;;;5029078;28;20232;-62
2023/02/21 13:49:43;;;;;;;6.20;4.20;;;9.40;99.90;;;;;;4986950;28;20232;-62
2023/02/21 13:52:30;;;;;;;5.03;4.07;;;9.40;99.90;;;;;;5018738;28;20225;-61
2023/02/21 13:55:31;;;;;;;5.70;4.13;;;9.40;99.90;;;;;;5019955;28;20813;-61
2023/02/21 13:58:32;;;;;;;6.77;4.40;;;9.40;99.90;;;;;;5006536;28;20308;-61
2023/02/21 14:01:32;;;;;;;5.50;4.23;;;9.40;99.90;;;;;;5028866;28;20281;-62
2023/02/21 14:04:20;;;;;;;6.47;4.50;;;9.40;99.90;;;;;;5024326;28;20661;-61
2023/02/21 14:06:56;;;;;;;8.73;5.20;;;9.40;99.90;;;;;;5029570;28;20244;-61
2023/02/21 14:09:24;;;;;;;7.33;5.27;;;9.40;99.90;;;;;;5028652;28;20205;-62
2023/02/21 14:11:53;;;;;;;10.87;5.60;;;9.30;99.90;;;;;;5028947;28;20201;-62
2023/02/21 14:14:26;;;;;;;9.30;5.50;;;9.30;99.90;;;;;;5028419;28;20624;-63
2023/02/21 14:17:01;;;;;;;9.87;5.27;;;9.30;99.90;;;;;;5028485;28;20205;-62
2023/02/21 14:19:38;;;;;;;7.93;4.97;;;9.30;99.90;;;;;;5028590;28;20283;-62
2023/02/21 14:22:13;;;;;;;10.30;5.97;;;9.30;99.90;;;;;;5028134;28;20210;-61
2023/02/21 14:24:44;;;;;;;9.40;5.67;;;9.30;99.90;;;;;;5027389;28;20225;-61
2023/02/21 14:27:37;;;;;;;8.93;5.47;;;9.30;99.90;;;;;;5028386;28;20210;-61
2023/02/21 14:30:28;;;;;;;10.67;6.00;;;9.30;99.90;;;;;;5028016;28;20740;-61
2023/02/21 14:33:08;;;;;;;10.03;5.80;;;9.30;99.90;;;;;;5028407;28;20606;-61
2023/02/21 14:35:45;;;;;;;8.70;5.70;;;9.30;99.90;;;;;;5029886;28;20661;-61
2023/02/21 14:38:20;;;;;;;11.10;5.77;;;9.30;99.90;;;;;;5026768;28;20234;-61
2023/02/21 14:41:01;;;;;;;10.50;5.70;;;9.30;99.90;;;;;;5028598;28;20211;-61
2023/02/21 14:43:46;;;;;;;10.93;6.40;;;9.30;99.90;;;;;;5027554;28;20301;-61
2023/02/21 14:46:43;;;;;;;12.10;6.10;;;9.30;99.90;;;;;;5028570;28;20232;-62
2023/02/21 14:49:43;;;;;;;14.47;6.13;;;9.30;99.90;;;;;;5026657;28;20249;-62
2023/02/21 14:53:02;;;;;;;10.23;5.30;;;9.40;99.90;;;;;;5025377;28;20214;-63
2023/02/21 14:56:06;;;;;;;11.07;6.13;;;9.30;99.90;;;;;;5028073;28;20289;-62
2023/02/21 14:59:02;;;;;;;10.83;6.07;;;9.20;99.90;;;;;;5028496;28;20759;-62
2023/02/21 15:01:54;;;;;;;13.87;5.77;;;9.20;99.90;;;;;;5027735;28;20225;-62
2023/02/21 15:04:34;;;;;;;11.63;6.10;;;9.20;99.90;;;;;;5027914;28;20234;-63
2023/02/21 15:07:15;;;;;;;11.57;5.90;;;9.20;99.90;;;;;;5028660;28;20224;-62
2023/02/21 15:09:44;;;;;;;11.80;6.07;;;9.20;99.90;;;;;;5027838;28;20197;-62
2023/02/21 15:12:15;;;;;;;11.47;6.00;;;9.20;99.90;;;;;;5026707;28;20213;-62
2023/02/21 15:14:49;;;;;;;11.77;6.20;;;9.20;99.90;;;;;;5027254;28;20206;-62
2023/02/21 15:17:24;;;;;;;10.10;6.20;;;9.20;99.90;;;;;;5028891;28;20198;-62
2023/02/21 15:20:05;;;;;;;12.70;5.97;;;9.20;99.90;;;;;;5027394;28;20607;-62
2023/02/21 15:22:33;;;;;;;12.67;5.77;;;9.10;99.90;;;;;;5027670;28;20216;-61
2023/02/21 15:25:19;;;;;;;9.00;5.70;;;9.10;99.90;;;;;;5027778;28;20690;-62
2023/02/21 15:28:02;;;;;;;14.40;5.73;;;9.10;99.90;;;;;;5028113;28;20197;-62
2023/02/21 15:30:38;;;;;;;12.23;6.30;;;9.10;99.90;;;;;;5027838;28;20572;-62
2023/02/21 15:33:14;;;;;;;11.27;5.57;;;9.10;99.90;;;;;;5025586;28;20240;-62
2023/02/21 15:35:49;;;;;;;11.07;5.80;;;9.10;99.90;;;;;;5027325;28;20209;-62
2023/02/21 15:38:23;;;;;;;10.73;6.77;;;9.10;99.90;;;;;;5031440;28;20238;-62
2023/02/21 15:40:55;;;;;;;9.83;5.93;;;9.10;99.90;;;;;;5031734;28;20239;-62
2023/02/21 15:43:30;;;;;;;12.43;6.70;;;9.10;99.90;;;;;;5031912;28;20723;-62
2023/02/21 15:46:01;;;;;;;11.17;5.87;;;9.10;99.90;;;;;;5031544;28;20223;-62
2023/02/21 15:48:36;;;;;;;11.80;6.37;;;9.10;99.90;;;;;;5027806;28;20190;-62